Time;durP1;ratioP1;P1;durP2;ratioP2;P2;SDS_P1;SDS_P2;PMS_P1;PMS_P2;Temp;Humidity;BMP_temperature;BMP_pressure;BME280_temperature;BME280_humidity;BME280_pressure;Samples;Min_cycle;Max_cycle;Signal;HPM_P1;HPM_P2
2022/07/10 00:01:51;;;;;;;3.30;2.88;;;20.50;1.00;;;;;;5094140;28;20032;-79
2022/07/10 00:04:18;;;;;;;4.75;3.05;;;20.50;1.00;;;;;;5093591;28;20017;-80
2022/07/10 00:06:46;;;;;;;3.55;2.58;;;20.50;1.00;;;;;;5093402;28;20077;-80
2022/07/10 00:09:13;;;;;;;5.40;2.83;;;20.30;1.00;;;;;;5093827;28;20505;-80
2022/07/10 00:11:39;;;;;;;3.58;3.03;;;20.30;1.00;;;;;;5094398;28;20427;-80
2022/07/10 00:14:04;;;;;;;4.75;2.92;;;20.30;1.00;;;;;;5094731;28;20028;-80
2022/07/10 00:16:30;;;;;;;5.28;3.00;;;20.30;1.00;;;;;;5093432;28;20456;-80
2022/07/10 00:18:56;;;;;;;3.47;3.17;;;20.30;1.00;;;;;;5092040;28;20024;-80
2022/07/10 00:21:21;;;;;;;5.13;3.00;;;20.30;1.00;;;;;;5093366;28;20024;-80
2022/07/10 00:23:47;;;;;;;4.22;3.25;;;20.20;1.00;;;;;;5092953;28;20024;-80
2022/07/10 00:26:12;;;;;;;4.50;3.40;;;20.10;1.00;;;;;;5095541;28;20016;-80
2022/07/10 00:28:38;;;;;;;3.50;3.20;;;19.70;1.00;;;;;;5092998;28;20550;-80
2022/07/10 00:31:04;;;;;;;4.75;3.60;;;19.50;1.00;;;;;;5091976;28;20024;-80
2022/07/10 00:33:31;;;;;;;4.40;3.22;;;19.40;1.00;;;;;;5093523;28;20439;-80
2022/07/10 00:35:57;;;;;;;5.20;3.20;;;19.60;1.00;;;;;;5092532;28;20036;-79
2022/07/10 00:38:23;;;;;;;5.25;3.40;;;19.60;1.00;;;;;;5095332;28;20028;-80
2022/07/10 00:40:49;;;;;;;4.07;3.15;;;19.80;1.00;;;;;;5092989;28;20028;-79
2022/07/10 00:43:15;;;;;;;3.85;3.05;;;19.80;1.00;;;;;;5093036;28;20058;-80
2022/07/10 00:45:40;;;;;;;7.57;3.40;;;19.80;1.00;;;;;;5092997;28;20048;-80
2022/07/10 00:48:06;;;;;;;3.50;3.05;;;19.80;1.00;;;;;;5092484;28;20032;-79
2022/07/10 00:50:33;;;;;;;4.30;3.13;;;19.90;1.00;;;;;;5094554;28;20020;-79
2022/07/10 00:52:59;;;;;;;5.72;2.92;;;19.90;1.00;;;;;;5091901;28;20035;-79
2022/07/10 00:55:25;;;;;;;4.93;2.90;;;20.00;1.00;;;;;;5092487;28;20079;-80
2022/07/10 00:57:51;;;;;;;6.63;3.13;;;20.00;1.00;;;;;;5090021;28;20063;-80
2022/07/10 01:00:18;;;;;;;4.20;2.78;;;20.10;1.00;;;;;;5092972;28;20028;-79
2022/07/10 01:02:44;;;;;;;3.53;2.75;;;20.00;1.00;;;;;;5092803;28;20023;-80
2022/07/10 01:05:10;;;;;;;5.20;2.63;;;20.10;1.00;;;;;;5111075;27;20032;-79
2022/07/10 01:07:38;;;;;;;6.50;2.97;;;20.10;1.00;;;;;;5088350;28;20492;-79
2022/07/10 01:10:04;;;;;;;4.07;2.92;;;20.10;1.00;;;;;;5091873;28;20032;-80
2022/07/10 01:12:31;;;;;;;3.67;2.90;;;20.10;1.00;;;;;;5092545;28;20048;-79
2022/07/10 01:14:58;;;;;;;4.15;2.83;;;20.00;1.00;;;;;;5092821;28;20035;-79
2022/07/10 01:17:25;;;;;;;6.22;2.90;;;20.00;1.00;;;;;;5094386;28;20032;-80
2022/07/10 01:19:50;;;;;;;5.90;3.10;;;20.00;1.00;;;;;;5091865;28;20040;-79
2022/07/10 01:22:16;;;;;;;3.00;2.65;;;20.00;1.00;;;;;;5092090;28;20050;-79
2022/07/10 01:24:42;;;;;;;3.15;2.85;;;19.90;1.00;;;;;;5092349;28;20024;-80
2022/07/10 01:27:08;;;;;;;4.13;3.53;;;19.90;1.00;;;;;;5090820;28;20043;-80
2022/07/10 01:29:36;;;;;;;3.72;2.90;;;19.50;1.00;;;;;;5093490;28;20160;-79
2022/07/10 01:32:02;;;;;;;5.05;3.50;;;19.40;1.00;;;;;;5092863;28;20056;-80
2022/07/10 01:34:28;;;;;;;3.85;3.00;;;19.20;1.00;;;;;;5091428;28;20064;-79
2022/07/10 01:36:54;;;;;;;3.33;3.03;;;19.00;1.00;;;;;;5090854;28;20061;-79
2022/07/10 01:39:19;;;;;;;3.60;3.30;;;19.00;1.00;;;;;;5091692;28;20094;-79
2022/07/10 01:41:45;;;;;;;8.70;3.15;;;19.10;1.00;;;;;;5092115;28;20388;-80
2022/07/10 01:44:10;;;;;;;5.25;3.17;;;19.30;1.00;;;;;;5093919;28;20510;-80
2022/07/10 01:46:43;;;;;;;4.47;3.28;;;19.30;1.00;;;;;;5091808;28;20036;-80
2022/07/10 01:49:09;;;;;;;4.90;3.10;;;19.30;1.00;;;;;;5091798;28;20020;-80
2022/07/10 01:51:35;;;;;;;4.45;3.35;;;18.90;1.00;;;;;;5091693;28;20028;-80
2022/07/10 01:54:00;;;;;;;4.05;3.30;;;18.80;1.00;;;;;;5091586;28;20027;-79
2022/07/10 01:56:26;;;;;;;4.68;3.30;;;18.60;1.00;;;;;;5093714;28;20036;-80
2022/07/10 01:58:51;;;;;;;4.82;3.70;;;18.80;1.00;;;;;;5091451;28;20024;-80
2022/07/10 02:01:17;;;;;;;5.47;3.58;;;18.80;1.00;;;;;;5091806;28;20150;-79
2022/07/10 02:06:26;;;;;;;5.80;3.33;;;18.70;1.00;;;;;;5091665;28;20054;-80
2022/07/10 02:08:52;;;;;;;4.63;3.55;;;18.70;1.00;;;;;;5091830;28;20473;-80
2022/07/10 02:11:18;;;;;;;5.18;3.55;;;18.60;1.00;;;;;;5093466;28;20028;-79
2022/07/10 02:13:44;;;;;;;3.92;3.42;;;18.50;1.00;;;;;;5091222;28;20370;-79
2022/07/10 02:16:10;;;;;;;3.83;3.40;;;18.50;1.00;;;;;;5088326;28;20024;-80
2022/07/10 02:18:36;;;;;;;5.00;3.60;;;18.50;1.00;;;;;;5090877;28;20016;-80
2022/07/10 02:21:02;;;;;;;5.28;3.42;;;18.40;1.00;;;;;;5090572;28;20036;-80
2022/07/10 02:23:28;;;;;;;6.75;3.60;;;18.30;1.00;;;;;;5093237;28;20039;-79
2022/07/10 02:25:53;;;;;;;5.70;3.70;;;18.30;1.00;;;;;;5091055;28;20028;-81
2022/07/10 02:28:19;;;;;;;5.18;3.33;;;18.20;1.00;;;;;;5090567;28;20435;-80
2022/07/10 02:30:45;;;;;;;4.43;3.65;;;18.20;1.00;;;;;;5089537;28;20036;-79
2022/07/10 02:33:10;;;;;;;3.72;3.42;;;18.30;1.00;;;;;;5091018;28;20397;-79
2022/07/10 02:35:36;;;;;;;3.95;3.25;;;18.20;1.00;;;;;;5090974;28;20115;-80
2022/07/10 02:38:01;;;;;;;6.28;3.75;;;18.00;1.00;;;;;;5091607;28;20028;-79
2022/07/10 02:40:27;;;;;;;6.85;3.78;;;18.10;1.00;;;;;;5090743;28;20107;-79
2022/07/10 02:42:53;;;;;;;3.83;3.40;;;17.90;1.00;;;;;;5090630;28;20020;-79
2022/07/10 02:45:18;;;;;;;6.82;3.63;;;17.80;1.00;;;;;;5090494;28;20085;-79
2022/07/10 02:47:44;;;;;;;5.55;3.58;;;18.10;1.00;;;;;;5090906;28;20043;-80
2022/07/10 02:50:09;;;;;;;3.60;3.28;;;18.00;1.00;;;;;;5092577;28;20468;-79
2022/07/10 02:52:35;;;;;;;7.22;3.28;;;17.90;1.00;;;;;;5090319;28;20016;-79
2022/07/10 02:55:01;;;;;;;5.00;3.85;;;17.80;1.00;;;;;;5090974;28;20083;-80
2022/07/10 02:57:27;;;;;;;8.00;3.88;;;17.90;1.00;;;;;;5090307;28;20052;-81
2022/07/10 02:59:53;;;;;;;3.50;3.13;;;17.80;1.00;;;;;;5090314;28;20082;-79
2022/07/10 03:02:19;;;;;;;4.05;3.65;;;17.90;1.00;;;;;;5092116;28;20412;-80
2022/07/10 03:04:44;;;;;;;5.82;3.60;;;17.80;1.00;;;;;;5090207;28;20035;-79
2022/07/10 03:07:10;;;;;;;3.83;3.40;;;17.80;1.00;;;;;;5090246;28;20046;-79
2022/07/10 03:09:35;;;;;;;7.30;3.58;;;17.80;1.00;;;;;;5090217;28;20397;-80
2022/07/10 03:12:01;;;;;;;3.30;3.00;;;17.80;1.00;;;;;;5090594;28;20400;-79
2022/07/10 03:14:27;;;;;;;4.35;3.33;;;17.90;1.00;;;;;;5092434;28;20126;-80
2022/07/10 03:16:53;;;;;;;4.60;3.63;;;17.90;1.00;;;;;;5089767;28;20024;-79
2022/07/10 03:19:18;;;;;;;4.25;3.85;;;17.90;1.00;;;;;;5090226;28;20038;-79
2022/07/10 03:21:45;;;;;;;4.68;3.38;;;17.80;1.00;;;;;;5089866;28;20472;-80
2022/07/10 03:24:11;;;;;;;8.70;3.50;;;17.70;1.00;;;;;;5090402;28;20039;-79
2022/07/10 03:26:37;;;;;;;6.10;3.45;;;17.60;1.00;;;;;;5089988;28;20024;-79
2022/07/10 03:29:02;;;;;;;6.38;3.65;;;17.60;1.00;;;;;;5090810;28;20047;-80
2022/07/10 03:31:28;;;;;;;4.70;3.38;;;17.50;1.00;;;;;;5089256;28;20039;-80
2022/07/10 03:33:53;;;;;;;4.15;3.40;;;17.50;1.00;;;;;;5088450;28;20081;-79
2022/07/10 03:36:19;;;;;;;4.22;3.83;;;17.40;1.00;;;;;;5089725;28;20088;-79
2022/07/10 03:38:46;;;;;;;5.55;3.15;;;17.60;1.00;;;;;;5089591;28;20024;-80
2022/07/10 03:41:12;;;;;;;3.60;3.30;;;17.50;1.00;;;;;;5091787;28;20028;-79
2022/07/10 03:43:38;;;;;;;3.55;3.20;;;17.40;1.00;;;;;;5089705;28;20437;-79
2022/07/10 03:46:03;;;;;;;6.80;3.83;;;17.30;1.00;;;;;;5089426;28;20028;-80
2022/07/10 03:48:29;;;;;;;5.75;3.65;;;17.30;1.00;;;;;;5090167;28;20020;-79
2022/07/10 03:50:55;;;;;;;5.20;3.78;;;17.20;1.00;;;;;;5089877;28;20499;-79
2022/07/10 03:53:20;;;;;;;4.45;3.45;;;17.20;1.00;;;;;;5091922;28;20118;-79
2022/07/10 03:55:46;;;;;;;4.40;3.80;;;17.30;1.00;;;;;;5089748;28;20462;-79
2022/07/10 03:58:12;;;;;;;4.30;3.45;;;17.30;1.00;;;;;;5089628;28;20016;-79
2022/07/10 04:00:38;;;;;;;4.93;3.45;;;17.30;1.00;;;;;;5089293;28;20016;-79
2022/07/10 04:03:07;;;;;;;5.32;3.80;;;17.30;1.00;;;;;;5089642;28;20496;-79
2022/07/10 04:05:34;;;;;;;4.22;3.83;;;17.40;1.00;;;;;;5091444;28;20519;-79
2022/07/10 04:08:00;;;;;;;3.72;3.35;;;17.40;1.00;;;;;;5090396;28;20465;-79
2022/07/10 04:10:27;;;;;;;4.68;3.58;;;17.40;1.00;;;;;;5089668;28;20073;-79
2022/07/10 04:12:53;;;;;;;4.15;3.63;;;17.30;1.00;;;;;;5087997;28;20063;-79
2022/07/10 04:15:20;;;;;;;3.92;3.63;;;17.20;1.00;;;;;;5089188;28;20037;-79
2022/07/10 04:17:50;;;;;;;4.25;3.70;;;17.30;1.00;;;;;;5089733;28;20024;-79
2022/07/10 04:20:17;;;;;;;4.50;3.80;;;17.30;1.00;;;;;;5092003;28;20036;-79
2022/07/10 04:22:43;;;;;;;3.78;3.45;;;17.20;1.00;;;;;;5089140;28;20039;-80
2022/07/10 04:25:09;;;;;;;4.03;3.50;;;17.20;1.00;;;;;;5089606;28;20028;-79
2022/07/10 04:27:35;;;;;;;5.90;3.83;;;17.30;1.00;;;;;;5089114;28;20024;-79
2022/07/10 04:30:01;;;;;;;7.00;3.60;;;17.30;1.00;;;;;;5089314;28;20056;-79
2022/07/10 04:32:27;;;;;;;4.00;3.60;;;17.40;1.00;;;;;;5091715;28;20028;-79
2022/07/10 04:34:53;;;;;;;3.60;3.30;;;17.40;1.00;;;;;;5089520;28;20036;-79
2022/07/10 04:37:19;;;;;;;11.02;3.90;;;17.60;1.00;;;;;;5089350;28;20112;-79
2022/07/10 04:39:45;;;;;;;4.43;3.47;;;17.60;1.00;;;;;;5089260;28;20107;-79
2022/07/10 04:42:10;;;;;;;5.10;3.70;;;17.70;1.00;;;;;;5089689;28;20498;-79
2022/07/10 04:44:36;;;;;;;4.20;3.72;;;17.70;1.00;;;;;;5091704;28;20086;-79
2022/07/10 04:47:03;;;;;;;6.47;4.13;;;17.50;1.00;;;;;;5093871;28;20495;-79
2022/07/10 04:49:29;;;;;;;8.90;3.63;;;17.50;1.00;;;;;;5092877;28;20058;-81
2022/07/10 04:51:56;;;;;;;6.30;3.80;;;17.60;1.00;;;;;;5093227;28;20052;-81
2022/07/10 04:54:22;;;;;;;4.60;3.58;;;17.70;1.00;;;;;;5092873;28;20024;-81
2022/07/10 04:56:48;;;;;;;3.75;3.45;;;17.80;1.00;;;;;;5092808;28;20062;-80
2022/07/10 04:59:14;;;;;;;6.28;3.30;;;18.00;1.00;;;;;;5094886;28;20055;-81
2022/07/10 05:01:40;;;;;;;5.80;3.50;;;18.10;1.00;;;;;;5092765;28;20082;-82
2022/07/10 05:04:05;;;;;;;4.30;3.70;;;18.10;1.00;;;;;;5092952;28;20480;-82
2022/07/10 05:06:31;;;;;;;5.65;3.60;;;17.80;1.00;;;;;;5092701;28;20028;-81
2022/07/10 05:08:57;;;;;;;5.47;4.18;;;17.60;1.00;;;;;;5092729;28;20032;-81
2022/07/10 05:11:23;;;;;;;5.38;3.53;;;17.60;1.00;;;;;;5094079;28;20099;-81
2022/07/10 05:13:49;;;;;;;7.18;3.72;;;17.60;1.00;;;;;;5092442;28;20024;-79
2022/07/10 05:16:15;;;;;;;4.45;3.72;;;17.70;1.00;;;;;;5092345;28;20039;-79
2022/07/10 05:18:41;;;;;;;4.80;3.70;;;17.90;1.00;;;;;;5092641;28;20510;-79
2022/07/10 05:21:07;;;;;;;4.50;3.08;;;18.10;1.00;;;;;;5091320;28;20028;-79
2022/07/10 05:23:33;;;;;;;5.63;3.05;;;18.20;1.00;;;;;;5092384;28;20442;-79
2022/07/10 05:25:59;;;;;;;4.82;3.10;;;18.20;1.00;;;;;;5092519;28;20028;-79
2022/07/10 05:28:25;;;;;;;5.63;3.35;;;18.30;1.00;;;;;;5092261;28;20048;-79
2022/07/10 05:30:51;;;;;;;4.05;3.13;;;18.30;1.00;;;;;;5090387;28;20024;-78
2022/07/10 05:33:17;;;;;;;3.80;2.92;;;18.30;1.00;;;;;;5091527;28;20017;-79
2022/07/10 05:35:43;;;;;;;2.85;2.65;;;18.40;1.00;;;;;;5092322;28;20046;-78
2022/07/10 05:38:08;;;;;;;4.38;3.10;;;18.50;1.00;;;;;;5093771;28;20028;-79
2022/07/10 05:40:34;;;;;;;3.22;2.72;;;18.50;1.00;;;;;;5091441;28;20046;-79
2022/07/10 05:43:00;;;;;;;4.75;2.97;;;18.60;1.00;;;;;;5091835;28;20024;-79
2022/07/10 05:45:26;;;;;;;3.25;2.88;;;18.60;1.00;;;;;;5090962;28;20028;-80
2022/07/10 05:47:51;;;;;;;5.10;2.80;;;18.60;1.00;;;;;;5092198;28;20032;-80
2022/07/10 05:50:17;;;;;;;4.90;3.38;;;18.60;1.00;;;;;;5093516;28;20028;-79
2022/07/10 05:52:43;;;;;;;4.05;3.00;;;18.80;1.00;;;;;;5091981;28;20400;-79
2022/07/10 05:55:09;;;;;;;3.67;3.33;;;18.80;1.00;;;;;;5090853;28;20044;-80
2022/07/10 05:57:35;;;;;;;5.15;2.95;;;18.80;1.00;;;;;;5091617;28;20028;-79
2022/07/10 06:00:03;;;;;;;5.47;2.90;;;18.80;1.00;;;;;;5091873;28;20037;-79
2022/07/10 06:02:29;;;;;;;5.15;2.70;;;18.90;1.00;;;;;;5093567;28;20107;-79
2022/07/10 06:04:54;;;;;;;6.28;2.55;;;18.90;1.00;;;;;;5091289;28;20074;-79
2022/07/10 06:07:20;;;;;;;3.20;2.80;;;18.90;1.00;;;;;;5091465;28;20442;-78
2022/07/10 06:09:45;;;;;;;3.95;2.90;;;18.80;1.00;;;;;;5089019;28;20020;-79
2022/07/10 06:12:11;;;;;;;5.72;2.90;;;18.80;1.00;;;;;;5091442;28;20024;-82
2022/07/10 06:14:37;;;;;;;3.80;2.80;;;18.80;1.00;;;;;;5092306;28;20068;-81
2022/07/10 06:17:02;;;;;;;3.95;3.20;;;18.80;1.00;;;;;;5092531;28;20115;-81
2022/07/10 06:19:28;;;;;;;9.20;3.30;;;18.90;1.00;;;;;;5091132;28;20113;-81
2022/07/10 06:24:38;;;;;;;4.35;2.80;;;19.00;1.00;;;;;;5090659;28;20062;-79
2022/07/10 06:27:04;;;;;;;3.50;2.97;;;19.00;1.00;;;;;;5090892;28;20389;-79
2022/07/10 06:29:30;;;;;;;5.60;3.05;;;19.00;1.00;;;;;;5092706;28;20496;-77
2022/07/10 06:31:56;;;;;;;4.07;2.63;;;19.10;1.00;;;;;;5091310;28;20024;-79
2022/07/10 06:34:21;;;;;;;5.05;3.08;;;19.20;1.00;;;;;;5090730;28;20312;-79
2022/07/10 06:36:47;;;;;;;3.78;3.00;;;19.20;1.00;;;;;;5090847;28;20053;-79
2022/07/10 06:39:13;;;;;;;3.25;2.95;;;19.10;1.00;;;;;;5090600;28;20020;-79
2022/07/10 06:41:38;;;;;;;5.63;3.40;;;19.20;1.00;;;;;;5091865;28;20036;-77
2022/07/10 06:44:04;;;;;;;5.97;3.38;;;19.30;1.00;;;;;;5092030;28;20021;-79
2022/07/10 06:46:31;;;;;;;5.80;3.10;;;19.30;1.00;;;;;;5090593;28;20031;-79
2022/07/10 06:48:57;;;;;;;5.68;3.20;;;19.40;1.00;;;;;;5089539;28;20070;-79
2022/07/10 06:51:22;;;;;;;3.47;2.90;;;19.40;1.00;;;;;;5090666;28;20591;-79
2022/07/10 06:53:48;;;;;;;4.70;3.30;;;19.40;1.00;;;;;;5090439;28;20103;-79
2022/07/10 06:56:15;;;;;;;5.13;3.53;;;19.50;1.00;;;;;;5092652;28;20090;-80
2022/07/10 06:58:42;;;;;;;3.92;3.30;;;19.50;1.00;;;;;;5090373;28;20020;-79
2022/07/10 07:01:07;;;;;;;3.08;2.70;;;19.60;1.00;;;;;;5089910;28;20032;-82
2022/07/10 07:03:33;;;;;;;3.50;3.05;;;19.80;1.00;;;;;;5090529;28;20038;-82
2022/07/10 07:05:59;;;;;;;4.40;3.15;;;19.90;1.00;;;;;;5090189;28;20052;-82
2022/07/10 07:08:24;;;;;;;3.53;2.83;;;19.80;1.00;;;;;;5092256;28;20020;-82
2022/07/10 07:10:50;;;;;;;3.45;3.13;;;19.90;1.00;;;;;;5089187;28;20024;-82
2022/07/10 07:13:16;;;;;;;3.55;3.00;;;20.00;1.00;;;;;;5089757;28;20056;-82
2022/07/10 07:15:46;;;;;;;3.78;2.90;;;20.10;1.00;;;;;;5090039;28;20377;-81
2022/07/10 07:18:12;;;;;;;5.78;2.97;;;20.30;1.00;;;;;;5090059;28;20045;-80
2022/07/10 07:23:23;;;;;;;4.40;3.20;;;20.30;1.00;;;;;;5090860;28;20469;-82
2022/07/10 07:25:49;;;;;;;4.60;2.97;;;20.20;1.00;;;;;;5089580;28;20036;-82
2022/07/10 07:28:16;;;;;;;6.53;3.30;;;20.20;1.00;;;;;;5089604;28;20040;-82
2022/07/10 07:30:42;;;;;;;3.35;3.05;;;20.30;1.00;;;;;;5089535;28;20053;-82
2022/07/10 07:33:08;;;;;;;5.53;3.50;;;20.40;1.00;;;;;;5089839;28;20032;-82
2022/07/10 07:35:34;;;;;;;3.78;3.05;;;20.70;1.00;;;;;;5091073;28;20086;-82
2022/07/10 07:38:02;;;;;;;4.57;3.28;;;20.60;1.00;;;;;;5090114;28;20024;-81
2022/07/10 07:40:27;;;;;;;6.13;3.30;;;20.50;1.00;;;;;;5089925;28;20473;-82
2022/07/10 07:42:55;;;;;;;6.63;3.10;;;20.60;1.00;;;;;;5090323;28;20035;-81
2022/07/10 07:45:21;;;;;;;3.38;2.95;;;20.80;1.00;;;;;;5090561;28;20040;-82
2022/07/10 07:47:59;;;;;;;4.13;3.50;;;20.70;1.00;;;;;;5090309;28;20028;-82
2022/07/10 07:50:28;;;;;;;4.13;3.00;;;20.80;1.00;;;;;;5091893;28;20480;-81
2022/07/10 07:52:54;;;;;;;4.35;3.30;;;21.00;1.00;;;;;;5089292;28;20078;-82
2022/07/10 07:55:21;;;;;;;3.72;3.03;;;21.00;1.00;;;;;;5089571;28;20032;-82
2022/07/10 07:57:48;;;;;;;3.38;3.00;;;21.00;1.00;;;;;;5089946;28;20020;-81
2022/07/10 08:00:17;;;;;;;4.82;3.30;;;21.00;1.00;;;;;;5089657;28;20024;-82
2022/07/10 08:02:43;;;;;;;6.05;3.38;;;21.10;1.00;;;;;;5090058;28;20472;-82
2022/07/10 08:05:09;;;;;;;4.90;3.10;;;21.20;1.00;;;;;;5091373;28;20045;-82
2022/07/10 08:07:48;;;;;;;3.45;3.15;;;21.40;1.00;;;;;;5088004;28;20464;-81
2022/07/10 08:10:17;;;;;;;5.47;3.33;;;21.20;1.00;;;;;;5087876;28;20426;-82
2022/07/10 08:12:45;;;;;;;6.03;3.50;;;21.30;1.00;;;;;;5089175;28;20028;-81
2022/07/10 08:15:12;;;;;;;4.65;3.10;;;21.40;1.00;;;;;;5089278;28;20036;-82
2022/07/10 08:17:38;;;;;;;4.97;3.40;;;21.50;1.00;;;;;;5090283;28;20107;-82
2022/07/10 08:20:05;;;;;;;7.35;3.30;;;21.60;1.00;;;;;;5093298;28;20023;-82
2022/07/10 08:22:31;;;;;;;7.68;3.58;;;21.70;1.00;;;;;;5092835;28;20059;-82
2022/07/10 08:24:57;;;;;;;3.80;3.40;;;21.60;1.00;;;;;;5093006;28;20017;-83
2022/07/10 08:27:23;;;;;;;3.58;3.28;;;21.70;1.00;;;;;;5093255;28;20024;-82
2022/07/10 08:29:49;;;;;;;4.30;3.25;;;21.70;1.00;;;;;;5093295;28;20097;-82
2022/07/10 08:32:15;;;;;;;6.22;3.40;;;21.80;1.00;;;;;;5095455;28;20394;-82
2022/07/10 08:34:40;;;;;;;4.68;3.40;;;21.90;1.00;;;;;;5092370;28;20077;-82
2022/07/10 08:37:06;;;;;;;3.55;3.25;;;22.00;1.00;;;;;;5093178;28;20028;-82
2022/07/10 08:39:32;;;;;;;4.65;3.45;;;22.20;1.00;;;;;;5093755;28;20103;-81
2022/07/10 08:41:59;;;;;;;5.45;3.30;;;22.30;1.00;;;;;;5093393;28;20043;-82
2022/07/10 08:44:25;;;;;;;4.40;3.00;;;22.20;1.00;;;;;;5095093;28;20028;-82
2022/07/10 08:46:51;;;;;;;4.85;3.67;;;22.30;1.00;;;;;;5091481;28;20068;-82
2022/07/10 08:49:17;;;;;;;5.03;3.67;;;22.40;1.00;;;;;;5092346;28;20027;-81
2022/07/10 08:52:05;;;;;;;3.63;3.33;;;22.50;1.00;;;;;;5092845;28;20027;-82
2022/07/10 08:54:32;;;;;;;4.22;3.30;;;22.50;1.00;;;;;;5093064;28;20560;-81
2022/07/10 08:57:00;;;;;;;4.55;3.20;;;22.70;1.00;;;;;;5092889;28;20070;-81
2022/07/10 08:59:27;;;;;;;4.60;3.35;;;22.90;1.00;;;;;;5094789;28;20035;-81
2022/07/10 09:01:53;;;;;;;4.43;3.25;;;22.90;1.00;;;;;;5092666;28;20028;-81
2022/07/10 09:04:20;;;;;;;4.57;3.22;;;22.90;1.00;;;;;;5092614;28;20035;-81
2022/07/10 09:06:46;;;;;;;5.97;3.35;;;23.00;1.00;;;;;;5093055;28;20412;-84
2022/07/10 09:09:12;;;;;;;4.80;3.65;;;23.00;1.00;;;;;;5092667;28;20028;-84
2022/07/10 09:11:42;;;;;;;3.63;3.30;;;23.10;1.00;;;;;;5093735;28;20020;-84
2022/07/10 09:14:11;;;;;;;4.97;3.25;;;23.40;1.00;;;;;;5093821;28;20036;-84
2022/07/10 09:16:38;;;;;;;4.03;3.13;;;23.50;1.00;;;;;;5092399;28;20042;-84
2022/07/10 09:19:25;;;;;;;4.50;3.50;;;23.50;1.00;;;;;;5092100;28;20048;-84
2022/07/10 09:22:10;;;;;;;3.67;3.03;;;23.50;1.00;;;;;;5092681;28;20052;-84
2022/07/10 09:24:41;;;;;;;4.63;3.50;;;23.40;1.00;;;;;;5091170;28;20500;-84
2022/07/10 09:27:07;;;;;;;4.55;2.92;;;23.60;1.00;;;;;;5092357;28;20050;-84
2022/07/10 09:29:48;;;;;;;3.67;2.97;;;23.60;1.00;;;;;;5092998;28;20052;-84
2022/07/10 09:32:16;;;;;;;5.38;3.05;;;23.70;1.00;;;;;;5092402;28;20035;-84
2022/07/10 09:34:49;;;;;;;3.50;3.13;;;23.90;1.00;;;;;;5091384;28;20024;-84
2022/07/10 09:37:22;;;;;;;4.57;2.95;;;24.00;1.00;;;;;;5092313;28;20024;-85
2022/07/10 09:39:58;;;;;;;5.55;3.20;;;24.10;1.00;;;;;;5091925;28;20016;-84
2022/07/10 09:42:43;;;;;;;3.80;3.40;;;24.00;1.00;;;;;;5091924;28;20028;-84
2022/07/10 09:45:13;;;;;;;3.30;3.00;;;24.10;1.00;;;;;;5077152;28;20020;-84
2022/07/10 09:47:52;;;;;;;5.43;3.60;;;24.30;1.00;;;;;;5092888;28;20039;-84
2022/07/10 09:50:25;;;;;;;4.85;3.00;;;24.40;1.00;;;;;;5092287;28;20043;-84
2022/07/10 09:52:53;;;;;;;4.50;3.03;;;24.50;1.00;;;;;;5091479;28;20031;-84
2022/07/10 09:55:24;;;;;;;5.18;3.28;;;24.60;1.00;;;;;;5091736;28;20036;-84
2022/07/10 09:57:55;;;;;;;2.95;2.72;;;24.70;1.00;;;;;;5091730;28;20031;-84
2022/07/10 10:00:29;;;;;;;4.95;3.28;;;24.60;1.00;;;;;;5091369;28;20054;-84
2022/07/10 10:02:57;;;;;;;4.55;3.38;;;24.30;1.00;;;;;;5090667;28;20503;-84
2022/07/10 10:05:32;;;;;;;4.07;3.40;;;24.40;1.00;;;;;;5093015;28;20020;-85
2022/07/10 10:08:15;;;;;;;5.72;3.40;;;24.50;1.00;;;;;;5091971;28;20122;-83
2022/07/10 10:10:47;;;;;;;4.03;2.85;;;24.70;1.00;;;;;;5091229;28;20024;-85
2022/07/10 10:13:17;;;;;;;5.32;2.88;;;24.90;1.00;;;;;;5091330;28;20046;-84
2022/07/10 10:15:43;;;;;;;4.22;2.80;;;24.90;1.00;;;;;;5090982;28;20032;-84
2022/07/10 10:18:10;;;;;;;3.25;2.95;;;24.90;1.00;;;;;;5091013;28;20020;-84
2022/07/10 10:20:41;;;;;;;6.03;3.13;;;25.10;1.00;;;;;;5092752;28;20090;-85
2022/07/10 10:23:12;;;;;;;3.35;2.90;;;24.90;1.00;;;;;;5092628;28;20024;-85
2022/07/10 10:25:38;;;;;;;4.05;3.10;;;25.10;1.00;;;;;;5091084;28;20016;-85
2022/07/10 10:28:06;;;;;;;3.85;3.10;;;25.20;1.00;;;;;;5090746;28;20055;-85
2022/07/10 10:30:33;;;;;;;3.08;2.70;;;25.40;1.00;;;;;;5090355;28;20027;-85
2022/07/10 10:32:59;;;;;;;5.65;3.00;;;25.50;1.00;;;;;;5090668;28;20127;-86
2022/07/10 10:35:46;;;;;;;4.43;2.80;;;25.60;1.00;;;;;;5092767;28;20380;-85
2022/07/10 10:38:13;;;;;;;4.95;2.92;;;25.50;1.00;;;;;;5090867;28;20032;-85
2022/07/10 10:40:41;;;;;;;5.32;3.00;;;25.70;1.00;;;;;;5090435;28;20044;-85
2022/07/10 10:43:19;;;;;;;4.25;3.08;;;25.80;1.00;;;;;;5089113;28;20073;-84
2022/07/10 10:45:46;;;;;;;3.45;2.70;;;25.90;1.00;;;;;;5090254;28;20019;-87
2022/07/10 10:48:21;;;;;;;3.80;2.90;;;25.80;1.00;;;;;;5090536;28;20438;-83
2022/07/10 10:50:51;;;;;;;3.40;3.05;;;26.00;1.00;;;;;;5090524;28;20059;-83
2022/07/10 10:53:18;;;;;;;3.42;2.85;;;25.90;1.00;;;;;;5092628;28;20043;-83
2022/07/10 10:56:03;;;;;;;4.10;3.05;;;25.80;1.00;;;;;;5090053;28;20044;-86
2022/07/10 10:58:39;;;;;;;3.60;2.90;;;25.70;1.00;;;;;;5090167;28;20522;-85
2022/07/10 11:01:26;;;;;;;4.35;2.85;;;26.00;1.00;;;;;;5089819;28;20150;-85
2022/07/10 11:04:04;;;;;;;3.25;2.90;;;26.10;1.00;;;;;;5090736;28;20024;-85
2022/07/10 11:06:49;;;;;;;6.18;3.45;;;26.20;1.00;;;;;;5090400;28;20066;-84
2022/07/10 11:09:32;;;;;;;3.00;2.70;;;26.10;1.00;;;;;;5075598;28;20073;-85
2022/07/10 11:12:02;;;;;;;5.15;2.90;;;26.00;1.00;;;;;;5090185;28;20020;-85
2022/07/10 11:14:30;;;;;;;3.17;2.80;;;26.20;1.00;;;;;;5087646;28;20561;-85
2022/07/10 11:16:56;;;;;;;4.45;2.80;;;26.40;1.00;;;;;;5090187;28;20028;-85
2022/07/10 11:19:23;;;;;;;4.95;2.50;;;26.40;1.00;;;;;;5089968;28;20065;-85
2022/07/10 11:22:05;;;;;;;3.83;2.83;;;26.40;1.00;;;;;;5088677;28;20028;-85
2022/07/10 11:24:43;;;;;;;5.03;2.85;;;26.40;1.00;;;;;;5089667;28;20077;-84
2022/07/10 11:27:28;;;;;;;5.07;2.78;;;26.50;1.00;;;;;;5075310;28;20024;-85
2022/07/10 11:30:00;;;;;;;5.45;2.70;;;26.70;1.00;;;;;;5089513;28;20054;-84
2022/07/10 11:32:27;;;;;;;2.70;2.45;;;26.90;1.00;;;;;;5091574;28;20024;-85
2022/07/10 11:34:54;;;;;;;3.60;2.60;;;26.90;1.00;;;;;;5089782;28;20042;-85
2022/07/10 11:37:20;;;;;;;4.03;2.60;;;27.00;1.00;;;;;;5089466;28;20028;-85
2022/07/10 11:39:45;;;;;;;3.25;2.53;;;27.20;1.00;;;;;;5089587;28;20051;-85
2022/07/10 11:42:11;;;;;;;4.07;2.47;;;27.00;1.00;;;;;;5089381;28;20118;-84
2022/07/10 11:44:37;;;;;;;2.90;2.70;;;27.00;1.00;;;;;;5090687;28;20039;-85
2022/07/10 11:47:04;;;;;;;2.83;2.58;;;27.00;1.00;;;;;;5089303;28;20024;-85
2022/07/10 11:49:30;;;;;;;3.45;2.83;;;27.20;1.00;;;;;;5089687;28;20496;-84
2022/07/10 11:52:02;;;;;;;4.43;2.45;;;27.30;1.00;;;;;;5089222;28;20031;-84
2022/07/10 11:54:27;;;;;;;4.15;2.80;;;27.40;1.00;;;;;;5094126;28;20020;-85
2022/07/10 11:56:53;;;;;;;3.75;2.60;;;27.50;1.00;;;;;;5093493;28;20170;-84
2022/07/10 11:59:27;;;;;;;2.92;2.50;;;27.60;1.00;;;;;;5095608;28;20085;-83
2022/07/10 12:01:54;;;;;;;3.50;2.47;;;28.20;1.00;;;;;;5092483;28;20032;-84
2022/07/10 12:04:25;;;;;;;3.47;2.17;;;29.80;1.00;;;;;;5091878;28;20028;-84
2022/07/10 12:06:53;;;;;;;2.80;2.40;;;31.80;1.00;;;;;;5092123;28;20052;-84
2022/07/10 12:09:21;;;;;;;4.70;2.58;;;33.40;1.00;;;;;;5093496;28;20035;-84
2022/07/10 12:12:22;;;;;;;3.35;2.70;;;34.40;1.00;;;;;;5093623;28;20036;-85
2022/07/10 12:14:47;;;;;;;2.60;2.40;;;35.80;1.00;;;;;;5084469;28;20059;-86
2022/07/10 12:17:13;;;;;;;2.95;2.25;;;35.10;1.00;;;;;;5093616;28;20103;-86
2022/07/10 12:19:39;;;;;;;2.47;2.28;;;36.10;1.00;;;;;;5093689;28;20024;-85
2022/07/10 12:22:05;;;;;;;2.20;2.00;;;36.50;1.00;;;;;;5093610;28;20028;-85
2022/07/10 12:24:32;;;;;;;3.13;2.53;;;37.00;1.00;;;;;;5093345;28;20020;-84
2022/07/10 12:26:58;;;;;;;2.80;2.60;;;37.40;1.00;;;;;;5091985;28;20042;-88
2022/07/10 12:29:29;;;;;;;3.00;2.40;;;38.50;1.00;;;;;;5094748;28;20048;-85
2022/07/10 12:31:56;;;;;;;3.63;2.22;;;38.60;1.00;;;;;;5093995;28;20078;-85
2022/07/10 12:34:57;;;;;;;2.70;2.47;;;37.20;1.00;;;;;;5092933;28;20028;-86
2022/07/10 12:37:23;;;;;;;3.78;2.30;;;37.90;1.00;;;;;;5092964;28;20496;-86
2022/07/10 12:39:54;;;;;;;4.75;2.13;;;38.30;1.00;;;;;;5091702;28;20024;-86
2022/07/10 12:42:28;;;;;;;4.40;2.35;;;39.00;1.00;;;;;;5092053;28;20032;-86
2022/07/10 12:44:53;;;;;;;3.60;2.83;;;38.40;1.00;;;;;;5092980;28;20036;-85
2022/07/10 12:47:21;;;;;;;3.00;2.20;;;38.50;1.00;;;;;;5095266;28;20529;-85
2022/07/10 12:49:57;;;;;;;3.05;2.55;;;38.40;1.00;;;;;;5093540;28;20479;-85
2022/07/10 12:52:34;;;;;;;4.90;2.10;;;38.10;1.00;;;;;;5092646;28;20054;-85
2022/07/10 12:55:13;;;;;;;2.10;1.90;;;38.20;1.00;;;;;;5092883;28;20485;-85
2022/07/10 12:57:58;;;;;;;5.28;2.40;;;37.50;1.00;;;;;;5092313;28;20028;-85
2022/07/10 13:00:33;;;;;;;3.13;2.00;;;37.30;1.00;;;;;;5093088;28;20028;-86
2022/07/10 13:03:08;;;;;;;3.22;2.25;;;36.80;1.00;;;;;;5092935;28;20020;-84
2022/07/10 13:05:33;;;;;;;3.20;2.05;;;37.00;1.00;;;;;;5089780;28;20026;-85
2022/07/10 13:08:07;;;;;;;2.17;1.90;;;36.40;1.00;;;;;;5093166;28;20107;-83
2022/07/10 13:10:36;;;;;;;2.83;1.98;;;36.50;1.00;;;;;;5091889;28;20062;-85